sensor_id;sensor_type;location;lat;lon;timestamp;pressure;altitude;pressure_sealevel;temperature;humidity
41898;BME280;27576;53.366;-1.498;2022-12-24T00:01:56;98828.97;;;4.12;100.00
41898;BME280;27576;53.366;-1.498;2022-12-24T00:04:21;98826.41;;;4.11;100.00
41898;BME280;27576;53.366;-1.498;2022-12-24T00:06:46;98820.31;;;4.04;100.00
41898;BME280;27576;53.366;-1.498;2022-12-24T00:09:12;98820.31;;;4.03;100.00
41898;BME280;27576;53.366;-1.498;2022-12-24T00:11:37;98837.56;;;4.16;100.00
41898;BME280;27576;53.366;-1.498;2022-12-24T00:14:03;98847.06;;;4.22;100.00
41898;BME280;27576;53.366;-1.498;2022-12-24T00:16:28;98835.00;;;4.14;100.00
41898;BME280;27576;53.366;-1.498;2022-12-24T00:18:54;98803.97;;;3.93;100.00
41898;BME280;27576;53.366;-1.498;2022-12-24T00:21:19;98815.09;;;3.97;100.00
41898;BME280;27576;53.366;-1.498;2022-12-24T00:23:45;98831.41;;;4.02;100.00
41898;BME280;27576;53.366;-1.498;2022-12-24T00:26:11;98848.50;;;4.04;100.00
41898;BME280;27576;53.366;-1.498;2022-12-24T00:28:37;98826.88;;;3.82;100.00
41898;BME280;27576;53.366;-1.498;2022-12-24T00:31:14;98869.00;;;4.03;100.00
41898;BME280;27576;53.366;-1.498;2022-12-24T00:33:39;98862.06;;;3.96;100.00
41898;BME280;27576;53.366;-1.498;2022-12-24T00:36:05;98834.59;;;3.87;100.00
41898;BME280;27576;53.366;-1.498;2022-12-24T00:38:31;98869.13;;;4.10;100.00
41898;BME280;27576;53.366;-1.498;2022-12-24T00:41:00;98845.81;;;3.95;100.00
41898;BME280;27576;53.366;-1.498;2022-12-24T00:43:27;98864.00;;;4.12;100.00
41898;BME280;27576;53.366;-1.498;2022-12-24T00:45:53;98837.34;;;3.99;100.00
41898;BME280;27576;53.366;-1.498;2022-12-24T00:48:19;98842.59;;;4.08;100.00
41898;BME280;27576;53.366;-1.498;2022-12-24T00:50:44;98875.34;;;4.29;100.00
41898;BME280;27576;53.366;-1.498;2022-12-24T00:53:09;98892.63;;;4.42;100.00
41898;BME280;27576;53.366;-1.498;2022-12-24T00:55:35;98841.06;;;4.24;100.00
41898;BME280;27576;53.366;-1.498;2022-12-24T00:58:00;98867.00;;;4.46;100.00
41898;BME280;27576;53.366;-1.498;2022-12-24T01:00:25;98880.03;;;4.62;100.00
41898;BME280;27576;53.366;-1.498;2022-12-24T01:02:51;98861.19;;;4.59;100.00
41898;BME280;27576;53.366;-1.498;2022-12-24T01:05:16;98887.09;;;4.82;100.00
41898;BME280;27576;53.366;-1.498;2022-12-24T01:07:45;98860.53;;;4.78;100.00
41898;BME280;27576;53.366;-1.498;2022-12-24T01:10:13;98891.59;;;5.00;100.00
41898;BME280;27576;53.366;-1.498;2022-12-24T01:12:39;98892.53;;;5.08;100.00
41898;BME280;27576;53.366;-1.498;2022-12-24T01:15:05;98888.19;;;5.01;100.00
41898;BME280;27576;53.366;-1.498;2022-12-24T01:17:32;98882.16;;;4.99;100.00
41898;BME280;27576;53.366;-1.498;2022-12-24T01:19:57;98873.53;;;4.93;100.00
41898;BME280;27576;53.366;-1.498;2022-12-24T01:22:22;98843.41;;;4.74;100.00
41898;BME280;27576;53.366;-1.498;2022-12-24T01:24:48;98869.19;;;4.86;100.00
41898;BME280;27576;53.366;-1.498;2022-12-24T01:27:13;98892.28;;;4.86;100.00
41898;BME280;27576;53.366;-1.498;2022-12-24T01:29:39;98876.78;;;4.76;100.00
41898;BME280;27576;53.366;-1.498;2022-12-24T01:32:04;98891.41;;;4.84;100.00
41898;BME280;27576;53.366;-1.498;2022-12-24T01:34:29;98875.00;;;4.70;100.00
41898;BME280;27576;53.366;-1.498;2022-12-24T01:36:55;98903.34;;;4.82;100.00
41898;BME280;27576;53.366;-1.498;2022-12-24T01:39:20;98875.75;;;4.60;100.00
41898;BME280;27576;53.366;-1.498;2022-12-24T01:41:46;98878.22;;;4.54;100.00
41898;BME280;27576;53.366;-1.498;2022-12-24T01:44:32;98897.94;;;4.58;100.00
41898;BME280;27576;53.366;-1.498;2022-12-24T01:47:05;98909.13;;;4.63;100.00
41898;BME280;27576;53.366;-1.498;2022-12-24T01:49:32;98888.38;;;4.45;100.00
41898;BME280;27576;53.366;-1.498;2022-12-24T01:52:06;98924.50;;;4.61;100.00
41898;BME280;27576;53.366;-1.498;2022-12-24T01:54:36;98914.19;;;4.58;100.00
41898;BME280;27576;53.366;-1.498;2022-12-24T01:57:12;98903.69;;;4.40;100.00
41898;BME280;27576;53.366;-1.498;2022-12-24T01:59:41;98826.19;;;3.96;100.00
41898;BME280;27576;53.366;-1.498;2022-12-24T02:02:08;98907.25;;;4.48;100.00
41898;BME280;27576;53.366;-1.498;2022-12-24T02:04:51;98918.31;;;4.46;100.00
41898;BME280;27576;53.366;-1.498;2022-12-24T02:07:18;98888.13;;;4.26;100.00
41898;BME280;27576;53.366;-1.498;2022-12-24T02:09:44;98917.41;;;4.42;100.00
41898;BME280;27576;53.366;-1.498;2022-12-24T02:12:09;98880.34;;;4.20;100.00
41898;BME280;27576;53.366;-1.498;2022-12-24T02:14:36;98901.84;;;4.30;100.00
41898;BME280;27576;53.366;-1.498;2022-12-24T02:17:18;98918.22;;;4.39;100.00
41898;BME280;27576;53.366;-1.498;2022-12-24T02:31:03;98936.06;;;4.32;100.00
41898;BME280;27576;53.366;-1.498;2022-12-24T02:33:34;98930.13;;;4.34;100.00
41898;BME280;27576;53.366;-1.498;2022-12-24T02:36:09;98935.50;;;4.53;100.00
41898;BME280;27576;53.366;-1.498;2022-12-24T02:38:46;98915.69;;;4.44;100.00
41898;BME280;27576;53.366;-1.498;2022-12-24T02:41:23;98943.41;;;4.71;100.00
41898;BME280;27576;53.366;-1.498;2022-12-24T02:43:52;98934.97;;;4.77;100.00
41898;BME280;27576;53.366;-1.498;2022-12-24T02:46:25;98914.38;;;4.72;100.00
41898;BME280;27576;53.366;-1.498;2022-12-24T02:48:52;98936.81;;;4.90;100.00
41898;BME280;27576;53.366;-1.498;2022-12-24T02:51:22;98947.97;;;4.93;100.00
41898;BME280;27576;53.366;-1.498;2022-12-24T02:53:48;98931.69;;;4.88;100.00
41898;BME280;27576;53.366;-1.498;2022-12-24T03:01:49;98943.84;;;5.05;100.00
41898;BME280;27576;53.366;-1.498;2022-12-24T03:06:59;98908.41;;;4.73;100.00
41898;BME280;27576;53.366;-1.498;2022-12-24T03:09:38;98956.63;;;5.00;100.00
41898;BME280;27576;53.366;-1.498;2022-12-24T03:12:13;98947.97;;;4.92;100.00
41898;BME280;27576;53.366;-1.498;2022-12-24T03:14:40;98972.03;;;5.02;100.00
41898;BME280;27576;53.366;-1.498;2022-12-24T03:17:07;98966.84;;;4.97;100.00
41898;BME280;27576;53.366;-1.498;2022-12-24T03:19:33;98963.47;;;5.03;100.00
41898;BME280;27576;53.366;-1.498;2022-12-24T03:22:01;98961.09;;;5.16;100.00
41898;BME280;27576;53.366;-1.498;2022-12-24T03:24:29;98943.88;;;5.09;100.00
41898;BME280;27576;53.366;-1.498;2022-12-24T03:26:55;98974.06;;;5.29;100.00
41898;BME280;27576;53.366;-1.498;2022-12-24T03:29:21;98944.81;;;5.17;100.00
41898;BME280;27576;53.366;-1.498;2022-12-24T03:31:49;98975.84;;;5.36;100.00
41898;BME280;27576;53.366;-1.498;2022-12-24T03:34:16;98987.88;;;5.40;100.00
41898;BME280;27576;53.366;-1.498;2022-12-24T03:36:42;98964.59;;;5.26;100.00
41898;BME280;27576;53.366;-1.498;2022-12-24T03:39:08;98988.75;;;5.40;100.00
41898;BME280;27576;53.366;-1.498;2022-12-24T03:41:34;98977.53;;;5.32;100.00
41898;BME280;27576;53.366;-1.498;2022-12-24T03:44:00;98952.56;;;5.21;100.00
41898;BME280;27576;53.366;-1.498;2022-12-24T03:46:25;98943.03;;;5.10;100.00
41898;BME280;27576;53.366;-1.498;2022-12-24T03:48:51;98976.59;;;5.24;100.00
41898;BME280;27576;53.366;-1.498;2022-12-24T03:51:21;98988.59;;;5.27;100.00
41898;BME280;27576;53.366;-1.498;2022-12-24T03:53:47;98948.22;;;5.12;100.00
41898;BME280;27576;53.366;-1.498;2022-12-24T03:56:12;98991.19;;;5.28;100.00
41898;BME280;27576;53.366;-1.498;2022-12-24T03:58:38;99004.13;;;5.37;100.00
41898;BME280;27576;53.366;-1.498;2022-12-24T04:01:03;98990.31;;;5.28;100.00
41898;BME280;27576;53.366;-1.498;2022-12-24T04:03:29;99015.34;;;5.46;100.00
41898;BME280;27576;53.366;-1.498;2022-12-24T04:06:06;98974.06;;;5.27;100.00
41898;BME280;27576;53.366;-1.498;2022-12-24T04:08:32;99008.47;;;5.43;100.00
41898;BME280;27576;53.366;-1.498;2022-12-24T04:10:57;98974.06;;;5.29;100.00
41898;BME280;27576;53.366;-1.498;2022-12-24T04:13:23;99009.38;;;5.47;100.00
41898;BME280;27576;53.366;-1.498;2022-12-24T04:15:59;99032.59;;;5.56;100.00
41898;BME280;27576;53.366;-1.498;2022-12-24T04:18:26;99015.38;;;5.47;100.00
41898;BME280;27576;53.366;-1.498;2022-12-24T04:20:51;99017.91;;;5.46;100.00
41898;BME280;27576;53.366;-1.498;2022-12-24T04:23:17;99033.44;;;5.56;100.00
41898;BME280;27576;53.366;-1.498;2022-12-24T04:25:42;99017.03;;;5.44;100.00
41898;BME280;27576;53.366;-1.498;2022-12-24T04:28:08;99037.72;;;5.56;100.00
41898;BME280;27576;53.366;-1.498;2022-12-24T04:30:33;99030.75;;;5.43;100.00
41898;BME280;27576;53.366;-1.498;2022-12-24T04:32:58;99021.31;;;5.45;100.00
41898;BME280;27576;53.366;-1.498;2022-12-24T04:35:24;99020.41;;;5.39;100.00
41898;BME280;27576;53.366;-1.498;2022-12-24T04:37:49;98998.88;;;5.28;100.00
41898;BME280;27576;53.366;-1.498;2022-12-24T04:40:14;99056.56;;;5.55;100.00
41898;BME280;27576;53.366;-1.498;2022-12-24T04:42:40;99034.16;;;5.45;100.00
41898;BME280;27576;53.366;-1.498;2022-12-24T04:45:05;99033.28;;;5.41;100.00
41898;BME280;27576;53.366;-1.498;2022-12-24T04:47:31;99058.19;;;5.50;100.00
41898;BME280;27576;53.366;-1.498;2022-12-24T04:49:56;99044.41;;;5.41;100.00
41898;BME280;27576;53.366;-1.498;2022-12-24T04:52:22;99039.16;;;5.32;100.00
41898;BME280;27576;53.366;-1.498;2022-12-24T04:54:47;99031.47;;;5.32;100.00
41898;BME280;27576;53.366;-1.498;2022-12-24T04:57:12;99036.50;;;5.25;100.00
41898;BME280;27576;53.366;-1.498;2022-12-24T04:59:38;99045.94;;;5.24;100.00
41898;BME280;27576;53.366;-1.498;2022-12-24T05:02:03;99025.13;;;5.06;100.00
41898;BME280;27576;53.366;-1.498;2022-12-24T05:04:28;99046.63;;;5.12;100.00
41898;BME280;27576;53.366;-1.498;2022-12-24T05:06:54;99037.06;;;5.01;100.00
41898;BME280;27576;53.366;-1.498;2022-12-24T05:09:19;99045.56;;;4.98;100.00
41898;BME280;27576;53.366;-1.498;2022-12-24T05:11:46;99073.06;;;5.04;100.00
41898;BME280;27576;53.366;-1.498;2022-12-24T05:14:11;99060.19;;;5.02;100.00
41898;BME280;27576;53.366;-1.498;2022-12-24T05:16:36;99060.06;;;4.95;100.00
41898;BME280;27576;53.366;-1.498;2022-12-24T05:19:03;99085.91;;;5.07;100.00
41898;BME280;27576;53.366;-1.498;2022-12-24T05:21:28;99036.69;;;4.73;100.00
41898;BME280;27576;53.366;-1.498;2022-12-24T05:23:53;99080.72;;;5.02;100.00
41898;BME280;27576;53.366;-1.498;2022-12-24T05:26:47;99091.81;;;5.00;100.00
41898;BME280;27576;53.366;-1.498;2022-12-24T05:29:14;99073.47;;;4.74;100.00
41898;BME280;27576;53.366;-1.498;2022-12-24T05:31:41;99102.75;;;4.86;100.00
41898;BME280;27576;53.366;-1.498;2022-12-24T05:34:07;99094.19;;;4.84;100.00
41898;BME280;27576;53.366;-1.498;2022-12-24T05:36:33;99099.31;;;4.86;100.00
41898;BME280;27576;53.366;-1.498;2022-12-24T05:38:59;99091.44;;;4.75;100.00
41898;BME280;27576;53.366;-1.498;2022-12-24T05:41:24;99103.50;;;4.79;100.00
41898;BME280;27576;53.366;-1.498;2022-12-24T05:43:50;99087.00;;;4.63;100.00
41898;BME280;27576;53.366;-1.498;2022-12-24T05:46:17;99114.47;;;4.71;100.00
41898;BME280;27576;53.366;-1.498;2022-12-24T05:48:43;99122.22;;;4.72;100.00
41898;BME280;27576;53.366;-1.498;2022-12-24T05:51:11;99093.72;;;4.55;100.00
41898;BME280;27576;53.366;-1.498;2022-12-24T05:53:37;99096.16;;;4.48;100.00
41898;BME280;27576;53.366;-1.498;2022-12-24T05:56:09;99092.66;;;4.42;100.00
41898;BME280;27576;53.366;-1.498;2022-12-24T05:58:35;99113.25;;;4.46;100.00
41898;BME280;27576;53.366;-1.498;2022-12-24T06:01:02;99113.91;;;4.35;100.00
41898;BME280;27576;53.366;-1.498;2022-12-24T06:03:28;99115.47;;;4.26;100.00
41898;BME280;27576;53.366;-1.498;2022-12-24T06:06:07;99148.16;;;4.39;100.00
41898;BME280;27576;53.366;-1.498;2022-12-24T06:08:34;99151.38;;;4.26;100.00
41898;BME280;27576;53.366;-1.498;2022-12-24T06:11:02;99152.22;;;4.26;100.00
41898;BME280;27576;53.366;-1.498;2022-12-24T06:13:29;99130.38;;;4.00;100.00
41898;BME280;27576;53.366;-1.498;2022-12-24T06:15:58;99156.28;;;4.13;100.00
41898;BME280;27576;53.366;-1.498;2022-12-24T06:18:24;99125.16;;;3.93;100.00
41898;BME280;27576;53.366;-1.498;2022-12-24T06:20:55;99125.88;;;3.86;100.00
41898;BME280;27576;53.366;-1.498;2022-12-24T06:23:21;99166.31;;;4.01;100.00
41898;BME280;27576;53.366;-1.498;2022-12-24T06:25:47;99179.00;;;3.97;100.00
41898;BME280;27576;53.366;-1.498;2022-12-24T06:28:13;99184.03;;;3.92;100.00
41898;BME280;27576;53.366;-1.498;2022-12-24T06:30:38;99174.47;;;3.82;100.00
41898;BME280;27576;53.366;-1.498;2022-12-24T06:33:04;99150.25;;;3.67;100.00
41898;BME280;27576;53.366;-1.498;2022-12-24T06:35:32;99162.16;;;3.65;100.00
41898;BME280;27576;53.366;-1.498;2022-12-24T06:37:58;99183.72;;;3.75;100.00
41898;BME280;27576;53.366;-1.498;2022-12-24T06:40:25;99170.78;;;3.69;100.00
41898;BME280;27576;53.366;-1.498;2022-12-24T06:42:50;99152.72;;;3.63;100.00
41898;BME280;27576;53.366;-1.498;2022-12-24T06:45:16;99134.63;;;3.54;100.00
41898;BME280;27576;53.366;-1.498;2022-12-24T06:47:41;99166.50;;;3.68;100.00
41898;BME280;27576;53.366;-1.498;2022-12-24T06:50:07;99178.53;;;3.72;100.00
41898;BME280;27576;53.366;-1.498;2022-12-24T06:52:32;99180.22;;;3.72;100.00
41898;BME280;27576;53.366;-1.498;2022-12-24T06:54:58;99164.63;;;3.61;100.00
41898;BME280;27576;53.366;-1.498;2022-12-24T06:57:23;99184.50;;;3.73;100.00
41898;BME280;27576;53.366;-1.498;2022-12-24T06:59:48;99193.88;;;3.71;100.00
41898;BME280;27576;53.366;-1.498;2022-12-24T07:02:14;99205.88;;;3.73;100.00
41898;BME280;27576;53.366;-1.498;2022-12-24T07:04:39;99198.91;;;3.66;100.00
41898;BME280;27576;53.366;-1.498;2022-12-24T07:07:04;99202.34;;;3.66;100.00
41898;BME280;27576;53.366;-1.498;2022-12-24T07:09:30;99209.16;;;3.66;100.00
41898;BME280;27576;53.366;-1.498;2022-12-24T07:11:55;99234.25;;;3.82;100.00
41898;BME280;27576;53.366;-1.498;2022-12-24T07:14:21;99210.88;;;3.67;100.00
41898;BME280;27576;53.366;-1.498;2022-12-24T07:16:46;99233.34;;;3.80;100.00
41898;BME280;27576;53.366;-1.498;2022-12-24T07:19:12;99247.84;;;3.78;100.00
41898;BME280;27576;53.366;-1.498;2022-12-24T07:21:37;99156.94;;;3.20;100.00
41898;BME280;27576;53.366;-1.498;2022-12-24T07:24:03;99216.59;;;3.54;100.00
41898;BME280;27576;53.366;-1.498;2022-12-24T07:26:28;99252.81;;;3.72;100.00
41898;BME280;27576;53.366;-1.498;2022-12-24T07:28:54;99262.19;;;3.70;100.00
41898;BME280;27576;53.366;-1.498;2022-12-24T07:31:19;99244.91;;;3.61;100.00
41898;BME280;27576;53.366;-1.498;2022-12-24T07:33:44;99265.53;;;3.66;100.00
41898;BME280;27576;53.366;-1.498;2022-12-24T07:36:17;99221.47;;;3.44;100.00
41898;BME280;27576;53.366;-1.498;2022-12-24T07:38:43;99250.63;;;3.50;100.00
41898;BME280;27576;53.366;-1.498;2022-12-24T07:41:09;99254.28;;;3.61;100.00
41898;BME280;27576;53.366;-1.498;2022-12-24T07:43:34;99266.28;;;3.62;100.00
41898;BME280;27576;53.366;-1.498;2022-12-24T07:46:00;99268.88;;;3.63;100.00
41898;BME280;27576;53.366;-1.498;2022-12-24T07:48:28;99267.19;;;3.65;100.00
41898;BME280;27576;53.366;-1.498;2022-12-24T07:50:55;99268.88;;;3.65;100.00
41898;BME280;27576;53.366;-1.498;2022-12-24T07:53:20;99227.34;;;3.39;100.00
41898;BME280;27576;53.366;-1.498;2022-12-24T07:55:46;99232.50;;;3.40;100.00
41898;BME280;27576;53.366;-1.498;2022-12-24T07:58:11;99252.19;;;3.43;100.00
41898;BME280;27576;53.366;-1.498;2022-12-24T08:00:37;99286.78;;;3.62;100.00
41898;BME280;27576;53.366;-1.498;2022-12-24T08:03:02;99254.69;;;3.41;100.00
41898;BME280;27576;53.366;-1.498;2022-12-24T08:05:28;99279.09;;;3.62;100.00
41898;BME280;27576;53.366;-1.498;2022-12-24T08:07:57;99288.69;;;3.72;100.00
41898;BME280;27576;53.366;-1.498;2022-12-24T08:10:22;99270.59;;;3.64;100.00
41898;BME280;27576;53.366;-1.498;2022-12-24T08:12:48;99261.25;;;3.66;100.00
41898;BME280;27576;53.366;-1.498;2022-12-24T08:15:14;99288.09;;;3.84;100.00
41898;BME280;27576;53.366;-1.498;2022-12-24T08:17:39;99260.66;;;3.78;100.00
41898;BME280;27576;53.366;-1.498;2022-12-24T08:20:05;99252.91;;;3.77;100.00
41898;BME280;27576;53.366;-1.498;2022-12-24T08:22:31;99268.50;;;3.86;100.00
41898;BME280;27576;53.366;-1.498;2022-12-24T08:24:56;99298.88;;;4.08;100.00
41898;BME280;27576;53.366;-1.498;2022-12-24T08:27:21;99218.72;;;3.75;100.00
41898;BME280;27576;53.366;-1.498;2022-12-24T08:29:47;99290.44;;;4.14;100.00
41898;BME280;27576;53.366;-1.498;2022-12-24T08:32:12;99292.97;;;4.12;100.00
41898;BME280;27576;53.366;-1.498;2022-12-24T08:34:37;99286.19;;;4.14;100.00
41898;BME280;27576;53.366;-1.498;2022-12-24T08:37:03;99275.84;;;4.10;100.00
41898;BME280;27576;53.366;-1.498;2022-12-24T08:39:28;99278.56;;;4.17;100.00
41898;BME280;27576;53.366;-1.498;2022-12-24T08:41:54;99314.69;;;4.30;100.00
41898;BME280;27576;53.366;-1.498;2022-12-24T08:44:20;99275.94;;;4.16;100.00
41898;BME280;27576;53.366;-1.498;2022-12-24T08:46:45;99293.25;;;4.26;100.00
41898;BME280;27576;53.366;-1.498;2022-12-24T08:49:10;99274.22;;;4.15;100.00
41898;BME280;27576;53.366;-1.498;2022-12-24T08:51:36;99312.13;;;4.30;100.00
41898;BME280;27576;53.366;-1.498;2022-12-24T08:54:01;99313.13;;;4.36;100.00
41898;BME280;27576;53.366;-1.498;2022-12-24T08:56:27;99283.63;;;4.16;100.00
41898;BME280;27576;53.366;-1.498;2022-12-24T08:58:52;99321.63;;;4.35;100.00
41898;BME280;27576;53.366;-1.498;2022-12-24T09:01:19;99330.34;;;4.42;100.00
41898;BME280;27576;53.366;-1.498;2022-12-24T09:03:45;99318.19;;;4.33;100.00
41898;BME280;27576;53.366;-1.498;2022-12-24T09:06:11;99312.13;;;4.30;100.00
41898;BME280;27576;53.366;-1.498;2022-12-24T09:08:37;99306.25;;;4.35;100.00
41898;BME280;27576;53.366;-1.498;2022-12-24T09:11:08;99312.31;;;4.39;100.00
41898;BME280;27576;53.366;-1.498;2022-12-24T09:13:35;99312.25;;;4.36;100.00
41898;BME280;27576;53.366;-1.498;2022-12-24T09:16:01;99298.47;;;4.29;100.00
41898;BME280;27576;53.366;-1.498;2022-12-24T09:18:26;99335.47;;;4.43;100.00
41898;BME280;27576;53.366;-1.498;2022-12-24T09:20:58;99331.09;;;4.38;100.00
41898;BME280;27576;53.366;-1.498;2022-12-24T09:23:23;99348.38;;;4.47;100.00
41898;BME280;27576;53.366;-1.498;2022-12-24T09:25:49;99327.94;;;4.50;100.00
41898;BME280;27576;53.366;-1.498;2022-12-24T09:28:14;99313.19;;;4.39;100.00
41898;BME280;27576;53.366;-1.498;2022-12-24T09:30:39;99346.97;;;4.62;100.00
41898;BME280;27576;53.366;-1.498;2022-12-24T09:33:05;99328.94;;;4.58;100.00
41898;BME280;27576;53.366;-1.498;2022-12-24T09:35:30;99352.41;;;4.76;100.00
41898;BME280;27576;53.366;-1.498;2022-12-24T09:37:56;99308.34;;;4.55;100.00
41898;BME280;27576;53.366;-1.498;2022-12-24T09:40:38;99356.84;;;4.86;100.00
41898;BME280;27576;53.366;-1.498;2022-12-24T09:43:17;99351.78;;;4.89;100.00
41898;BME280;27576;53.366;-1.498;2022-12-24T09:45:49;99346.56;;;4.86;100.00
41898;BME280;27576;53.366;-1.498;2022-12-24T09:48:20;99334.59;;;4.85;100.00
41898;BME280;27576;53.366;-1.498;2022-12-24T09:51:04;99364.88;;;5.03;100.00
41898;BME280;27576;53.366;-1.498;2022-12-24T09:53:54;99365.84;;;5.10;100.00
41898;BME280;27576;53.366;-1.498;2022-12-24T09:56:25;99354.63;;;5.06;100.00
41898;BME280;27576;53.366;-1.498;2022-12-24T09:59:05;99340.06;;;5.04;100.00
41898;BME280;27576;53.366;-1.498;2022-12-24T10:01:34;99352.28;;;5.17;100.00
41898;BME280;27576;53.366;-1.498;2022-12-24T10:04:21;99359.19;;;5.21;100.00
41898;BME280;27576;53.366;-1.498;2022-12-24T10:09:47;99366.25;;;5.34;100.00
41898;BME280;27576;53.366;-1.498;2022-12-24T10:12:41;99357.63;;;5.29;100.00
41898;BME280;27576;53.366;-1.498;2022-12-24T10:15:36;99383.50;;;5.41;100.00
41898;BME280;27576;53.366;-1.498;2022-12-24T10:21:00;99381.25;;;5.60;100.00
41898;BME280;27576;53.366;-1.498;2022-12-24T10:29:17;99406.47;;;5.84;100.00
41898;BME280;27576;53.366;-1.498;2022-12-24T10:31:55;99408.25;;;5.86;100.00
41898;BME280;27576;53.366;-1.498;2022-12-24T10:34:24;99401.34;;;5.84;100.00
41898;BME280;27576;53.366;-1.498;2022-12-24T10:36:52;99385.84;;;5.79;100.00
41898;BME280;27576;53.366;-1.498;2022-12-24T10:39:21;99377.22;;;5.77;100.00
41898;BME280;27576;53.366;-1.498;2022-12-24T10:41:50;99397.25;;;5.95;100.00
41898;BME280;27576;53.366;-1.498;2022-12-24T10:44:18;99405.16;;;6.06;100.00
41898;BME280;27576;53.366;-1.498;2022-12-24T10:46:45;99375.63;;;5.85;100.00
41898;BME280;27576;53.366;-1.498;2022-12-24T10:49:15;99394.81;;;6.03;100.00
41898;BME280;27576;53.366;-1.498;2022-12-24T10:51:51;99408.53;;;6.05;100.00
41898;BME280;27576;53.366;-1.498;2022-12-24T10:54:23;99401.59;;;5.98;100.00
41898;BME280;27576;53.366;-1.498;2022-12-24T10:56:51;99367.69;;;5.69;100.00
41898;BME280;27576;53.366;-1.498;2022-12-24T11:02:24;99392.63;;;5.74;100.00
41898;BME280;27576;53.366;-1.498;2022-12-24T11:04:50;99383.94;;;5.68;100.00
41898;BME280;27576;53.366;-1.498;2022-12-24T11:07:19;99396.06;;;5.75;100.00
41898;BME280;27576;53.366;-1.498;2022-12-24T11:09:59;99397.91;;;5.83;100.00
41898;BME280;27576;53.366;-1.498;2022-12-24T11:12:28;99403.06;;;5.85;100.00
41898;BME280;27576;53.366;-1.498;2022-12-24T11:15:06;99400.53;;;5.86;100.00
41898;BME280;27576;53.366;-1.498;2022-12-24T11:17:40;99369.50;;;5.74;100.00
41898;BME280;27576;53.366;-1.498;2022-12-24T11:20:14;99390.25;;;5.88;100.00
41898;BME280;27576;53.366;-1.498;2022-12-24T11:22:41;99368.72;;;5.80;100.00
41898;BME280;27576;53.366;-1.498;2022-12-24T11:25:24;99389.53;;;5.94;100.00
41898;BME280;27576;53.366;-1.498;2022-12-24T11:27:53;99352.38;;;5.76;100.00
41898;BME280;27576;53.366;-1.498;2022-12-24T11:30:22;99386.16;;;5.98;100.00
41898;BME280;27576;53.366;-1.498;2022-12-24T11:32:50;99386.25;;;6.04;100.00
41898;BME280;27576;53.366;-1.498;2022-12-24T11:35:40;99342.28;;;5.88;100.00
41898;BME280;27576;53.366;-1.498;2022-12-24T11:38:10;99384.75;;;6.20;100.00
41898;BME280;27576;53.366;-1.498;2022-12-24T11:40:48;99382.22;;;6.23;100.00
41898;BME280;27576;53.366;-1.498;2022-12-24T11:43:17;99373.69;;;6.25;100.00
41898;BME280;27576;53.366;-1.498;2022-12-24T11:45:55;99338.34;;;6.12;100.00
41898;BME280;27576;53.366;-1.498;2022-12-24T11:48:31;99366.97;;;6.36;100.00
41898;BME280;27576;53.366;-1.498;2022-12-24T11:51:02;99333.44;;;6.29;100.00
41898;BME280;27576;53.366;-1.498;2022-12-24T11:53:45;99355.84;;;6.37;100.00
41898;BME280;27576;53.366;-1.498;2022-12-24T11:56:23;99353.31;;;6.42;100.00
41898;BME280;27576;53.366;-1.498;2022-12-24T11:58:53;99354.19;;;6.41;100.00
41898;BME280;27576;53.366;-1.498;2022-12-24T12:01:34;99365.44;;;6.49;100.00
41898;BME280;27576;53.366;-1.498;2022-12-24T12:04:04;99372.28;;;6.50;100.00
41898;BME280;27576;53.366;-1.498;2022-12-24T12:06:53;99340.38;;;6.34;100.00
41898;BME280;27576;53.366;-1.498;2022-12-24T12:09:27;99374.06;;;6.54;100.00
41898;BME280;27576;53.366;-1.498;2022-12-24T12:12:17;99372.44;;;6.62;100.00
41898;BME280;27576;53.366;-1.498;2022-12-24T12:14:49;99378.50;;;6.66;100.00
41898;BME280;27576;53.366;-1.498;2022-12-24T12:20:00;99379.44;;;6.73;100.00
41898;BME280;27576;53.366;-1.498;2022-12-24T12:22:58;99363.09;;;6.69;100.00
41898;BME280;27576;53.366;-1.498;2022-12-24T12:25:58;99354.47;;;6.66;100.00
41898;BME280;27576;53.366;-1.498;2022-12-24T12:28:26;99362.22;;;6.69;100.00
41898;BME280;27576;53.366;-1.498;2022-12-24T12:31:18;99332.88;;;6.53;100.00
41898;BME280;27576;53.366;-1.498;2022-12-24T12:36:49;99357.97;;;6.72;100.00
41898;BME280;27576;53.366;-1.498;2022-12-24T12:39:15;99321.72;;;6.55;100.00
41898;BME280;27576;53.366;-1.498;2022-12-24T12:41:53;99315.91;;;6.69;100.00
41898;BME280;27576;53.366;-1.498;2022-12-24T12:50:26;99331.84;;;7.19;100.00
41898;BME280;27576;53.366;-1.498;2022-12-24T12:56:03;99347.31;;;7.22;100.00
41898;BME280;27576;53.366;-1.498;2022-12-24T12:58:45;99347.31;;;7.22;100.00
41898;BME280;27576;53.366;-1.498;2022-12-24T13:01:29;99328.31;;;7.08;100.00
41898;BME280;27576;53.366;-1.498;2022-12-24T13:04:32;99345.59;;;7.20;100.00
41898;BME280;27576;53.366;-1.498;2022-12-24T13:07:18;99354.19;;;7.22;100.00
41898;BME280;27576;53.366;-1.498;2022-12-24T13:10:07;99352.47;;;7.19;100.00
41898;BME280;27576;53.366;-1.498;2022-12-24T13:20:30;99343.56;;;6.91;100.00
41898;BME280;27576;53.366;-1.498;2022-12-24T13:22:59;99358.25;;;6.97;100.00
41898;BME280;27576;53.366;-1.498;2022-12-24T13:25:33;99345.47;;;7.07;100.00
41898;BME280;27576;53.366;-1.498;2022-12-24T13:30:45;99341.19;;;7.08;100.00
41898;BME280;27576;53.366;-1.498;2022-12-24T13:33:12;99350.63;;;7.09;100.00
41898;BME280;27576;53.366;-1.498;2022-12-24T13:35:57;99339.44;;;7.05;100.00
41898;BME280;27576;53.366;-1.498;2022-12-24T13:40:51;99343.66;;;6.96;100.00
41898;BME280;27576;53.366;-1.498;2022-12-24T13:43:17;99367.81;;;7.08;100.00
41898;BME280;27576;53.366;-1.498;2022-12-24T13:45:53;99331.63;;;6.98;100.00
41898;BME280;27576;53.366;-1.498;2022-12-24T13:48:28;99318.69;;;6.88;100.00
41898;BME280;27576;53.366;-1.498;2022-12-24T13:51:00;99302.38;;;6.89;100.00
41898;BME280;27576;53.366;-1.498;2022-12-24T13:53:43;99347.19;;;7.08;100.00
41898;BME280;27576;53.366;-1.498;2022-12-24T13:58:43;99350.59;;;7.06;100.00
41898;BME280;27576;53.366;-1.498;2022-12-24T14:01:12;99337.72;;;7.06;100.00
41898;BME280;27576;53.366;-1.498;2022-12-24T14:03:48;99316.09;;;6.92;100.00
41898;BME280;27576;53.366;-1.498;2022-12-24T14:06:25;99338.56;;;7.05;100.00